createdAt,value
2023-12-24T00:00:28.228Z,-0.89
2023-12-24T00:05:31.395Z,-0.99
2023-12-24T00:10:34.570Z,-0.99
2023-12-24T00:15:37.739Z,-0.96
2023-12-24T00:20:41.232Z,-0.99
2023-12-24T00:25:44.421Z,-0.97
2023-12-24T00:30:47.780Z,-0.91
2023-12-24T00:35:51.232Z,-0.95
2023-12-24T00:40:54.420Z,-0.89
2023-12-24T00:45:57.434Z,-0.82
2023-12-24T00:51:00.550Z,-0.88
2023-12-24T00:56:03.805Z,-0.81
2023-12-24T01:01:07.044Z,-0.83
2023-12-24T01:06:10.569Z,-0.76
2023-12-24T01:11:14.363Z,-0.82
2023-12-24T01:16:18.016Z,-0.74
2023-12-24T01:21:21.174Z,-0.79
2023-12-24T01:26:24.244Z,-0.74
2023-12-24T01:31:28.547Z,-0.66
2023-12-24T01:36:50.116Z,-0.61
2023-12-24T01:41:53.398Z,-0.69
2023-12-24T01:46:56.632Z,-0.59
2023-12-24T01:52:00.380Z,-0.53
2023-12-24T01:57:03.931Z,-0.56
2023-12-24T02:02:07.161Z,-0.56
2023-12-24T02:07:12.787Z,-0.43
2023-12-24T02:12:17.749Z,-0.34
2023-12-24T02:17:23.568Z,-0.31
2023-12-24T02:22:27.264Z,-0.28
2023-12-24T02:27:36.300Z,-0.30
2023-12-24T02:32:42.379Z,-0.20
2023-12-24T02:37:45.933Z,-0.15
2023-12-24T02:42:49.358Z,-0.14
2023-12-24T02:47:52.833Z,-0.11
2023-12-24T02:52:56.076Z,0.00
2023-12-24T02:58:00.350Z,0.01
2023-12-24T03:03:03.584Z,0.05
2023-12-24T03:08:06.865Z,0.10
2023-12-24T03:13:09.937Z,0.08
2023-12-24T03:18:13.308Z,0.06
2023-12-24T03:23:16.597Z,0.15
2023-12-24T03:28:19.613Z,0.12
2023-12-24T03:33:23.655Z,0.14
2023-12-24T03:38:26.887Z,0.18
2023-12-24T03:43:31.125Z,0.22
2023-12-24T03:48:37.453Z,0.30
2023-12-24T03:53:40.537Z,0.32
2023-12-24T03:58:43.620Z,0.31
2023-12-24T04:03:49.548Z,0.37
2023-12-24T04:08:54.895Z,0.35
2023-12-24T04:14:00.080Z,0.37
2023-12-24T04:19:03.748Z,0.41
2023-12-24T04:24:07.453Z,0.50
2023-12-24T04:29:10.666Z,0.46
2023-12-24T04:34:14.930Z,0.51
2023-12-24T04:39:19.044Z,0.50
2023-12-24T04:44:22.263Z,0.52
2023-12-24T04:49:25.531Z,0.58
2023-12-24T04:54:29.196Z,0.61
2023-12-24T04:59:32.439Z,0.69
2023-12-24T05:04:36.610Z,0.70
2023-12-24T05:09:44.975Z,0.67
2023-12-24T05:14:49.403Z,0.66
2023-12-24T05:19:53.001Z,0.60
2023-12-24T05:24:56.284Z,0.62
2023-12-24T05:29:59.995Z,0.58
2023-12-24T05:35:03.338Z,0.55
2023-12-24T05:40:07.195Z,0.69
2023-12-24T05:45:13.231Z,0.67
2023-12-24T05:50:16.351Z,0.52
2023-12-24T05:55:19.384Z,0.56
2023-12-24T06:00:22.533Z,0.61
2023-12-24T06:05:25.715Z,0.47
2023-12-24T06:10:28.808Z,0.45
2023-12-24T06:15:32.443Z,0.44
2023-12-24T06:20:38.121Z,0.53
2023-12-24T06:25:41.656Z,0.41
2023-12-24T06:30:44.949Z,0.53
2023-12-24T06:35:48.074Z,0.53
2023-12-24T06:40:51.203Z,0.54
2023-12-24T06:45:54.408Z,0.74
2023-12-24T06:50:57.554Z,0.78
2023-12-24T06:56:00.638Z,0.62
2023-12-24T07:01:04.094Z,0.60
2023-12-24T07:06:07.580Z,0.74
2023-12-24T07:11:11.255Z,0.89
2023-12-24T07:16:14.362Z,1.08
2023-12-24T07:21:18.066Z,1.11
2023-12-24T07:26:22.548Z,1.17
2023-12-24T07:31:25.701Z,1.34
2023-12-24T07:36:28.852Z,1.32
2023-12-24T07:41:32.865Z,1.14
2023-12-24T07:46:38.404Z,1.05
2023-12-24T07:51:42.602Z,1.04
2023-12-24T07:56:45.704Z,1.24
2023-12-24T08:01:48.794Z,1.36
2023-12-24T08:06:55.770Z,1.24
2023-12-24T08:12:00.020Z,0.93
2023-12-24T08:17:03.249Z,0.89
2023-12-24T08:22:06.516Z,1.03
2023-12-24T08:27:09.851Z,1.06
2023-12-24T08:32:13.071Z,1.18
2023-12-24T08:37:16.513Z,1.43
2023-12-24T08:42:19.670Z,1.40
2023-12-24T08:47:22.972Z,1.37
2023-12-24T08:52:26.900Z,0.89
2023-12-24T08:57:30.189Z,1.19
2023-12-24T09:02:33.401Z,1.24
2023-12-24T09:07:37.028Z,1.30
2023-12-24T09:12:40.019Z,1.37
2023-12-24T09:17:43.374Z,1.52
2023-12-24T09:22:47.025Z,1.62
2023-12-24T09:27:50.259Z,1.35
2023-12-24T09:32:53.710Z,0.94
2023-12-24T09:37:57.193Z,1.34
2023-12-24T09:43:01.626Z,1.11
2023-12-24T09:48:05.367Z,1.22
2023-12-24T09:53:08.851Z,0.77
2023-12-24T09:58:12.058Z,1.11
2023-12-24T10:03:15.214Z,1.08
2023-12-24T10:08:19.255Z,1.01
2023-12-24T10:13:23.681Z,1.13
2023-12-24T10:18:26.997Z,1.10
2023-12-24T10:23:31.267Z,0.88
2023-12-24T10:28:35.240Z,1.02
2023-12-24T10:33:39.608Z,1.15
2023-12-24T10:38:43.476Z,0.91
2023-12-24T10:43:46.965Z,1.30
2023-12-24T10:48:50.717Z,1.21
2023-12-24T10:53:55.114Z,1.00
2023-12-24T10:59:04.988Z,0.91
2023-12-24T11:04:08.209Z,0.86
2023-12-24T11:09:17.467Z,0.54
2023-12-24T11:14:47.342Z,0.53
2023-12-24T11:19:50.730Z,0.60
2023-12-24T11:25:17.990Z,0.68
2023-12-24T11:30:22.001Z,0.45
2023-12-24T11:35:53.662Z,0.55
2023-12-24T11:41:06.499Z,0.53
2023-12-24T11:46:13.389Z,0.78
2023-12-24T11:51:16.730Z,0.72
2023-12-24T11:56:21.606Z,0.52
2023-12-24T12:01:27.170Z,0.61
2023-12-24T12:06:36.497Z,0.73
2023-12-24T12:11:42.726Z,0.88
2023-12-24T12:16:46.153Z,0.96
2023-12-24T12:21:49.553Z,1.08
2023-12-24T12:26:53.089Z,1.09
2023-12-24T12:31:59.459Z,1.11
2023-12-24T12:37:02.530Z,1.20
2023-12-24T12:42:06.185Z,1.04
2023-12-24T12:47:09.272Z,0.95
2023-12-24T12:52:12.649Z,0.87
2023-12-24T12:57:33.533Z,0.85
2023-12-24T13:02:43.513Z,0.69
2023-12-24T13:07:47.149Z,0.73
2023-12-24T13:13:12.091Z,0.76
2023-12-24T13:18:20.047Z,0.79
2023-12-24T13:23:25.428Z,0.85
2023-12-24T13:28:29.989Z,0.82
2023-12-24T13:33:34.082Z,0.77
2023-12-24T13:38:37.495Z,0.80
2023-12-24T13:43:41.317Z,0.70
2023-12-24T13:48:44.586Z,0.65
2023-12-24T13:53:49.303Z,0.71
2023-12-24T13:58:52.382Z,0.69
2023-12-24T14:03:55.645Z,0.33
2023-12-24T14:08:59.783Z,-0.05
2023-12-24T14:14:03.008Z,0.04
2023-12-24T14:19:07.579Z,-0.06
2023-12-24T14:24:10.688Z,-0.14
2023-12-24T14:29:14.361Z,-0.08
2023-12-24T14:34:36.874Z,-0.13
2023-12-24T14:39:40.227Z,-0.25
2023-12-24T14:44:44.855Z,-0.14
2023-12-24T14:49:48.424Z,-0.15
2023-12-24T14:54:51.685Z,-0.18
2023-12-24T14:59:58.525Z,-0.18
2023-12-24T15:05:02.221Z,-0.32
2023-12-24T15:10:08.583Z,-0.23
2023-12-24T15:15:12.801Z,-0.13
2023-12-24T15:20:16.080Z,-0.45
2023-12-24T15:25:19.913Z,-0.50
2023-12-24T15:30:23.058Z,-0.48
2023-12-24T15:35:26.426Z,-0.57
2023-12-24T15:40:29.466Z,-0.38
2023-12-24T15:45:36.734Z,-0.67
2023-12-24T15:50:42.341Z,-0.72
2023-12-24T15:56:04.235Z,-0.67
2023-12-24T16:01:07.710Z,-0.70
2023-12-24T16:06:11.284Z,-0.71
2023-12-24T16:11:14.584Z,-0.63
2023-12-24T16:16:17.911Z,-0.76
2023-12-24T16:21:20.972Z,-0.80
2023-12-24T16:26:24.230Z,-0.78
2023-12-24T16:31:28.080Z,-0.77
2023-12-24T16:36:31.427Z,-0.73
2023-12-24T16:41:45.710Z,-0.77
2023-12-24T16:46:49.051Z,-0.90
2023-12-24T16:51:52.309Z,-0.96
2023-12-24T16:56:55.528Z,-1.13
2023-12-24T17:01:58.564Z,-1.25
2023-12-24T17:07:01.838Z,-1.14
2023-12-24T17:12:06.559Z,-1.23
2023-12-24T17:17:11.364Z,-1.25
2023-12-24T17:22:14.684Z,-1.12
2023-12-24T17:27:18.122Z,-1.12
2023-12-24T17:32:21.790Z,-1.23
2023-12-24T17:37:25.050Z,-1.19
2023-12-24T17:42:28.144Z,-1.07
2023-12-24T17:47:32.032Z,-1.12
2023-12-24T17:52:35.282Z,-1.13
2023-12-24T17:57:38.590Z,-1.18
2023-12-24T18:02:41.680Z,-1.15
2023-12-24T18:07:45.248Z,-1.28
2023-12-24T18:12:50.087Z,-1.21
2023-12-24T18:17:53.291Z,-1.21
2023-12-24T18:22:56.641Z,-1.21
2023-12-24T18:28:00.508Z,-1.42
2023-12-24T18:33:04.378Z,-1.39
2023-12-24T18:38:07.779Z,-1.41
2023-12-24T18:43:10.945Z,-1.45
2023-12-24T18:48:14.472Z,-1.65
2023-12-24T18:53:17.814Z,-1.78
2023-12-24T18:58:21.225Z,-1.74
2023-12-24T19:03:24.455Z,-1.76
2023-12-24T19:08:27.992Z,-1.84
2023-12-24T19:13:31.077Z,-1.83
2023-12-24T19:18:34.354Z,-1.82
2023-12-24T19:23:37.764Z,-1.92
2023-12-24T19:28:42.294Z,-1.82
2023-12-24T19:33:45.937Z,-1.87
2023-12-24T19:38:49.361Z,-1.90
2023-12-24T19:43:52.533Z,-1.94
2023-12-24T19:48:55.837Z,-1.95
2023-12-24T19:53:59.064Z,-1.92
2023-12-24T19:59:02.349Z,-1.86
2023-12-24T20:04:06.730Z,-1.85
2023-12-24T20:09:10.943Z,-1.83
2023-12-24T20:14:14.193Z,-1.69
2023-12-24T20:19:17.358Z,-1.69
2023-12-24T20:24:20.839Z,-1.56
2023-12-24T20:29:42.528Z,-1.56
2023-12-24T20:34:45.964Z,-1.55
2023-12-24T20:39:49.099Z,-1.54
2023-12-24T20:44:55.092Z,-1.57
2023-12-24T20:50:00.795Z,-1.52
2023-12-24T20:55:04.261Z,-1.55
2023-12-24T21:00:08.713Z,-1.65
2023-12-24T21:05:16.480Z,-1.44
2023-12-24T21:10:19.910Z,-1.55
2023-12-24T21:15:23.137Z,-1.53
2023-12-24T21:20:26.344Z,-1.60
2023-12-24T21:25:29.891Z,-1.81
2023-12-24T21:30:33.214Z,-1.91
2023-12-24T21:35:38.567Z,-1.80
2023-12-24T21:40:42.167Z,-1.88
2023-12-24T21:45:45.803Z,-2.00
2023-12-24T21:50:49.177Z,-2.03
2023-12-24T21:55:52.330Z,-1.94
2023-12-24T22:00:55.446Z,-2.08
2023-12-24T22:06:01.134Z,-2.14
2023-12-24T22:11:04.761Z,-2.27
2023-12-24T22:16:20.065Z,-2.35
2023-12-24T22:21:53.223Z,-2.33
2023-12-24T22:26:56.676Z,-2.47
2023-12-24T22:31:59.867Z,-2.45
2023-12-24T22:37:03.463Z,-2.47
2023-12-24T22:42:06.774Z,-2.48
2023-12-24T22:47:09.869Z,-2.62
2023-12-24T22:52:13.874Z,-2.71
2023-12-24T22:57:17.104Z,-2.70
2023-12-24T23:02:20.354Z,-2.80
2023-12-24T23:07:23.558Z,-2.81
2023-12-24T23:12:26.840Z,-2.81
2023-12-24T23:17:30.049Z,-2.84
2023-12-24T23:22:33.370Z,-2.86
2023-12-24T23:27:36.517Z,-2.80
2023-12-24T23:32:39.859Z,-2.78
2023-12-24T23:37:43.402Z,-2.78
2023-12-24T23:42:46.536Z,-2.84
2023-12-24T23:47:49.591Z,-2.81
2023-12-24T23:52:52.748Z,-2.81
2023-12-24T23:57:55.990Z,-2.73
